createdAt,value
2023-08-11T00:01:05.459Z,68933.53
2023-08-11T00:03:33.663Z,68940.00
2023-08-11T00:06:01.073Z,68933.91
2023-08-11T00:08:28.223Z,68929.94
2023-08-11T00:10:55.937Z,68898.50
2023-08-11T00:13:23.224Z,68920.78
2023-08-11T00:15:50.431Z,68923.47
2023-08-11T00:18:17.596Z,68910.16
2023-08-11T00:20:46.281Z,68904.88
2023-08-11T00:23:13.714Z,68903.38
2023-08-11T00:25:40.844Z,68883.03
2023-08-11T00:28:08.019Z,68882.28
2023-08-11T00:30:35.289Z,68897.09
2023-08-11T00:33:02.525Z,68891.03
2023-08-11T00:35:29.718Z,68893.31
2023-08-11T00:37:57.117Z,68888.94
2023-08-11T00:40:24.930Z,68880.38
2023-08-11T00:42:52.174Z,68873.97
2023-08-11T00:45:19.658Z,68869.97
2023-08-11T00:47:47.462Z,68860.47
2023-08-11T00:50:17.237Z,68857.06
2023-08-11T00:52:46.900Z,68860.13
2023-08-11T00:55:14.550Z,68851.38
2023-08-11T00:57:42.177Z,68851.38
2023-08-11T01:00:14.041Z,68854.63
2023-08-11T01:02:43.772Z,68848.53
2023-08-11T01:05:13.210Z,68843.41
2023-08-11T01:08:20.663Z,68836.59
2023-08-11T01:10:53.390Z,68839.06
2023-08-11T01:13:21.185Z,68833.19
2023-08-11T01:15:59.963Z,68833.19
2023-08-11T01:18:31.928Z,68833.56
2023-08-11T01:21:09.677Z,68829.03
2023-08-11T01:23:36.948Z,68795.00
2023-08-11T01:26:04.953Z,68812.53
2023-08-11T01:28:35.276Z,68810.66
2023-08-11T01:31:02.438Z,68803.63
2023-08-11T01:33:29.582Z,68790.91
2023-08-11T01:35:56.720Z,68774.03
2023-08-11T01:38:23.870Z,68759.25
2023-08-11T01:40:51.622Z,68756.22
2023-08-11T01:43:20.876Z,68749.97
2023-08-11T01:45:50.850Z,68731.97
2023-08-11T01:48:20.925Z,68722.28
2023-08-11T01:50:48.446Z,68723.44
2023-08-11T01:53:15.708Z,68728.38
2023-08-11T01:55:44.120Z,68712.63
2023-08-11T01:58:11.422Z,68704.69
2023-08-11T02:00:38.561Z,68705.25
2023-08-11T02:03:06.000Z,68716.44
2023-08-11T02:05:33.268Z,68720.41
2023-08-11T02:08:01.360Z,68721.16
2023-08-11T02:10:30.437Z,68733.28
2023-08-11T02:12:57.605Z,68733.84
2023-08-11T02:15:24.943Z,68728.38
2023-08-11T02:17:52.189Z,68729.84
2023-08-11T02:20:23.295Z,68736.88
2023-08-11T02:22:53.145Z,68736.50
2023-08-11T02:25:23.189Z,68735.75
2023-08-11T02:27:51.320Z,68720.03
2023-08-11T02:30:19.663Z,68736.31
2023-08-11T02:32:47.193Z,68716.03
2023-08-11T02:35:18.377Z,68704.28
2023-08-11T02:37:46.404Z,68706.94
2023-08-11T02:40:13.956Z,68713.22
2023-08-11T02:42:49.686Z,68707.72
2023-08-11T02:45:16.962Z,68696.72
2023-08-11T02:47:44.247Z,68691.44
2023-08-11T02:50:11.963Z,68695.97
2023-08-11T02:52:39.252Z,68689.91
2023-08-11T02:55:08.803Z,68681.94
2023-08-11T02:57:36.296Z,68684.59
2023-08-11T03:00:11.062Z,68680.22
2023-08-11T03:02:38.315Z,68679.66
2023-08-11T03:05:08.321Z,68678.75
2023-08-11T03:07:37.838Z,68678.75
2023-08-11T03:10:05.259Z,68671.72
2023-08-11T03:12:32.610Z,68672.66
2023-08-11T03:15:00.039Z,68670.00
2023-08-11T03:17:27.780Z,68670.56
2023-08-11T03:19:54.900Z,68674.94
2023-08-11T03:22:22.169Z,68668.88
2023-08-11T03:24:50.352Z,68663.19
2023-08-11T03:27:19.681Z,68657.31
2023-08-11T03:29:46.972Z,68649.53
2023-08-11T03:32:14.270Z,68648.03
2023-08-11T03:34:42.619Z,68639.88
2023-08-11T03:37:11.034Z,68644.81
2023-08-11T03:39:38.235Z,68648.59
2023-08-11T03:42:06.350Z,68644.22
2023-08-11T03:44:34.003Z,68639.50
2023-08-11T03:47:04.138Z,68645.56
2023-08-11T03:49:32.553Z,68654.66
2023-08-11T03:51:59.942Z,68651.22
2023-08-11T03:54:35.815Z,68662.81
2023-08-11T03:57:11.900Z,68666.81
2023-08-11T03:59:39.066Z,68668.13
2023-08-11T04:02:07.067Z,68668.88
2023-08-11T04:04:34.380Z,68676.25
2023-08-11T04:07:01.459Z,68685.00
2023-08-11T04:09:30.382Z,68684.03
2023-08-11T04:11:57.785Z,68688.00
2023-08-11T04:14:25.620Z,68687.81
2023-08-11T04:16:52.760Z,68695.97
2023-08-11T04:19:19.903Z,68700.50
2023-08-11T04:21:47.174Z,68706.78
2023-08-11T04:24:16.429Z,68711.31
2023-08-11T04:26:43.666Z,68712.25
2023-08-11T04:29:11.013Z,68716.81
2023-08-11T04:31:38.388Z,68721.72
2023-08-11T04:34:07.445Z,68727.22
2023-08-11T04:36:34.571Z,68733.84
2023-08-11T04:39:01.922Z,68725.88
2023-08-11T04:41:29.253Z,68733.47
2023-08-11T04:43:56.481Z,68742.56
2023-08-11T04:46:23.692Z,68745.22
2023-08-11T04:48:51.000Z,68748.81
2023-08-11T04:51:18.552Z,68741.63
2023-08-11T04:53:45.718Z,68745.59
2023-08-11T04:56:13.380Z,68752.63
2023-08-11T04:58:40.548Z,68759.44
2023-08-11T05:01:08.617Z,68761.91
2023-08-11T05:03:35.894Z,68762.47
2023-08-11T05:06:05.211Z,68766.44
2023-08-11T05:08:34.249Z,68769.28
2023-08-11T05:11:01.389Z,68768.34
2023-08-11T05:13:28.512Z,68772.31
2023-08-11T05:15:55.715Z,68777.78
2023-08-11T05:18:23.483Z,68778.75
2023-08-11T05:20:50.733Z,68779.72
2023-08-11T05:23:17.881Z,68782.00
2023-08-11T05:25:45.143Z,68785.97
2023-08-11T05:28:12.283Z,68785.41
2023-08-11T05:30:40.033Z,68796.03
2023-08-11T05:33:07.213Z,68798.69
2023-08-11T05:35:34.358Z,68807.59
2023-08-11T05:38:02.573Z,68813.84
2023-08-11T05:40:30.518Z,68821.81
2023-08-11T05:42:57.841Z,68830.91
2023-08-11T05:45:24.926Z,68813.19
2023-08-11T05:47:52.076Z,68841.72
2023-08-11T05:50:19.625Z,68847.03
2023-08-11T05:52:46.874Z,68854.03
2023-08-11T05:55:14.093Z,68845.50
2023-08-11T05:57:41.245Z,68840.38
2023-08-11T06:00:10.171Z,68837.72
2023-08-11T06:02:43.793Z,68846.28
2023-08-11T06:05:11.549Z,68856.91
2023-08-11T06:07:41.114Z,68851.59
2023-08-11T06:10:10.626Z,68849.84
2023-08-11T06:12:37.779Z,68861.63
2023-08-11T06:15:05.848Z,68863.72
2023-08-11T06:17:33.205Z,68875.44
2023-08-11T06:20:01.725Z,68889.34
2023-08-11T06:22:28.884Z,68900.13
2023-08-11T06:24:56.012Z,68893.66
2023-08-11T06:27:23.203Z,68901.84
2023-08-11T06:29:50.317Z,68912.66
2023-08-11T06:32:17.482Z,68913.03
2023-08-11T06:34:44.625Z,68913.41
2023-08-11T06:37:11.767Z,68921.19
2023-08-11T06:39:38.926Z,68933.00
2023-08-11T06:42:06.157Z,68934.88
2023-08-11T06:44:58.887Z,68938.28
2023-08-11T06:47:26.111Z,68937.72
2023-08-11T06:49:53.368Z,68944.53
2023-08-11T06:52:20.577Z,68945.88
2023-08-11T06:54:47.716Z,68948.94
2023-08-11T06:57:15.248Z,68949.84
2023-08-11T06:59:42.484Z,68958.41
2023-08-11T07:02:09.695Z,68966.38
2023-08-11T07:04:36.919Z,68977.16
2023-08-11T07:07:04.128Z,68992.72
2023-08-11T07:09:31.310Z,69002.78
2023-08-11T07:11:58.483Z,69014.19
2023-08-11T07:14:26.037Z,69024.25
2023-08-11T07:16:53.372Z,69024.44
2023-08-11T07:19:20.624Z,69029.00
2023-08-11T07:21:47.829Z,69038.69
2023-08-11T07:24:15.293Z,69056.00
2023-08-11T07:26:42.818Z,69060.56
2023-08-11T07:29:09.993Z,69062.22
2023-08-11T07:31:37.198Z,69061.66
2023-08-11T07:34:04.594Z,69080.66
2023-08-11T07:36:31.728Z,69086.94
2023-08-11T07:39:12.818Z,69095.25
2023-08-11T07:41:46.038Z,69112.56
2023-08-11T07:44:13.349Z,69128.53
2023-08-11T07:46:40.615Z,69143.53
2023-08-11T07:49:07.993Z,69166.91
2023-08-11T07:51:35.160Z,69153.78
2023-08-11T07:54:02.464Z,69153.97
2023-08-11T07:56:29.659Z,69152.63
2023-08-11T07:58:57.346Z,69157.63
2023-08-11T08:01:25.054Z,69169.19
2023-08-11T08:03:52.308Z,69210.25
2023-08-11T08:06:19.812Z,69221.66
2023-08-11T08:08:46.974Z,69255.91
2023-08-11T08:11:14.233Z,69276.41
2023-08-11T08:13:41.524Z,69283.09
2023-08-11T08:16:08.716Z,69296.22
2023-08-11T08:18:35.883Z,69292.22
2023-08-11T08:21:03.403Z,69314.25
2023-08-11T08:23:30.638Z,69315.78
2023-08-11T08:25:57.904Z,69330.06
2023-08-11T08:28:25.914Z,69331.56
2023-08-11T08:30:53.314Z,69372.13
2023-08-11T08:33:20.558Z,69380.47
2023-08-11T08:35:47.935Z,69392.44
2023-08-11T08:38:15.121Z,69408.84
2023-08-11T08:40:42.438Z,69409.25
2023-08-11T08:43:10.035Z,69406.97
2023-08-11T08:45:38.235Z,69415.28
2023-08-11T08:48:10.601Z,69425.97
2023-08-11T08:50:39.238Z,69426.53
2023-08-11T08:53:06.808Z,69443.09
2023-08-11T08:55:34.656Z,69407.50
2023-08-11T08:58:02.036Z,69443.81
2023-08-11T09:02:58.092Z,69455.81
2023-08-11T09:05:26.489Z,69459.84
2023-08-11T09:07:53.901Z,69474.34
2023-08-11T09:10:21.810Z,69460.03
2023-08-11T09:12:49.556Z,69504.22
2023-08-11T09:15:16.794Z,69515.09
2023-08-11T09:17:44.036Z,69523.66
2023-08-11T09:20:13.951Z,69528.81
2023-08-11T09:22:41.616Z,69525.38
2023-08-11T09:25:08.942Z,69526.28
2023-08-11T09:27:36.139Z,69520.56
2023-08-11T09:30:04.520Z,69539.44
2023-08-11T09:32:34.934Z,69571.25
2023-08-11T09:35:08.449Z,69567.66
2023-08-11T09:37:36.202Z,69569.97
2023-08-11T09:40:06.159Z,69572.25
2023-08-11T09:42:33.861Z,69556.78
2023-08-11T09:45:01.053Z,69558.28
2023-08-11T09:47:30.100Z,69591.09
2023-08-11T09:49:57.768Z,69601.38
2023-08-11T09:52:25.294Z,69611.25
2023-08-11T09:54:55.751Z,69617.94
2023-08-11T09:57:24.538Z,69617.94
2023-08-11T09:59:54.670Z,69592.56
2023-08-11T10:02:25.904Z,69619.25
2023-08-11T10:04:59.859Z,69625.56
2023-08-11T10:07:35.435Z,69642.69
2023-08-11T10:10:14.973Z,69632.59
2023-08-11T10:12:48.500Z,69652.50
2023-08-11T10:15:19.805Z,69660.28
2023-08-11T10:17:47.328Z,69654.00
2023-08-11T10:20:14.918Z,69625.56
2023-08-11T10:22:42.492Z,69632.09
2023-08-11T10:25:10.289Z,69631.84
2023-08-11T10:27:40.210Z,69654.16
2023-08-11T10:30:09.893Z,69669.03
2023-08-11T10:32:37.073Z,69680.13
2023-08-11T10:35:07.669Z,69677.03
2023-08-11T10:37:35.302Z,69671.72
2023-08-11T10:40:07.144Z,69663.13
2023-08-11T10:42:37.384Z,69652.84
2023-08-11T10:45:13.084Z,69682.19
2023-08-11T10:47:56.232Z,69708.31
2023-08-11T10:50:23.615Z,69710.19
2023-08-11T10:53:06.661Z,69715.19
2023-08-11T10:55:37.530Z,69715.34
2023-08-11T10:58:17.784Z,69697.19
2023-08-11T11:00:45.098Z,69719.75
2023-08-11T11:03:13.535Z,69728.34
2023-08-11T11:05:43.584Z,69718.63
2023-08-11T11:08:11.419Z,69689.03
2023-08-11T11:10:49.261Z,69659.47
2023-08-11T11:13:17.620Z,69705.47
2023-08-11T11:15:44.914Z,69720.34
2023-08-11T11:18:12.525Z,69719.34
2023-08-11T11:20:39.692Z,69727.38
2023-08-11T11:23:06.968Z,69747.22
2023-08-11T11:25:34.173Z,69760.97
2023-08-11T11:28:01.341Z,69743.41
2023-08-11T11:30:28.630Z,69758.09
2023-08-11T11:32:55.973Z,69765.69
2023-08-11T11:35:24.746Z,69793.91
2023-08-11T11:37:52.504Z,69795.00
2023-08-11T11:40:19.629Z,69829.66
2023-08-11T11:42:48.099Z,69830.78
2023-08-11T11:45:15.936Z,69827.94
2023-08-11T11:47:43.561Z,69827.94
2023-08-11T11:50:10.992Z,69814.47
2023-08-11T11:52:38.381Z,69842.25
2023-08-11T11:55:07.469Z,69853.84
2023-08-11T11:57:35.251Z,69863.25
2023-08-11T12:00:04.648Z,69849.84
2023-08-11T12:02:41.417Z,69858.69
2023-08-11T12:05:09.513Z,69860.16
2023-08-11T12:07:37.950Z,69870.88
2023-08-11T12:10:06.949Z,69875.63
2023-08-11T12:12:34.259Z,69869.72
2023-08-11T12:15:06.390Z,69861.69
2023-08-11T12:17:35.072Z,69842.41
2023-08-11T12:20:09.301Z,69847.41
2023-08-11T12:22:36.748Z,69841.81
2023-08-11T12:25:04.536Z,69847.56
2023-08-11T12:27:31.660Z,69845.94
2023-08-11T12:29:58.792Z,69882.31
2023-08-11T12:32:26.272Z,69864.16
2023-08-11T12:34:53.430Z,69860.56
2023-08-11T12:37:20.468Z,69860.16
2023-08-11T12:39:47.610Z,69853.97
2023-08-11T12:42:14.729Z,69870.03
2023-08-11T12:44:42.469Z,69844.81
2023-08-11T12:47:09.578Z,69875.63
2023-08-11T12:49:36.581Z,69876.91
2023-08-11T12:52:04.866Z,69881.91
2023-08-11T12:54:32.053Z,69872.59
2023-08-11T12:56:59.276Z,69877.72
2023-08-11T12:59:26.460Z,69870.44
2023-08-11T13:01:54.974Z,69883.75
2023-08-11T13:04:22.161Z,69921.28
2023-08-11T13:06:49.322Z,69927.31
2023-08-11T13:09:16.788Z,69953.91
2023-08-11T13:11:44.935Z,69958.66
2023-08-11T13:14:12.139Z,69976.25
2023-08-11T13:16:39.452Z,69980.97
2023-08-11T13:19:06.825Z,69996.88
2023-08-11T13:21:34.238Z,69976.25
2023-08-11T13:24:02.082Z,69963.81
2023-08-11T13:26:29.711Z,69926.69
2023-08-11T13:28:58.609Z,69943.75
2023-08-11T13:31:26.532Z,69953.50
2023-08-11T13:33:53.701Z,69968.38
2023-08-11T13:36:21.840Z,69995.16
2023-08-11T13:38:49.080Z,69989.03
2023-08-11T13:41:16.361Z,70000.91
2023-08-11T13:43:43.462Z,70003.78
2023-08-11T13:46:10.705Z,69994.03
2023-08-11T13:48:38.019Z,69975.94
2023-08-11T13:51:05.462Z,70005.06
2023-08-11T13:53:32.842Z,69990.84
2023-08-11T13:56:00.027Z,70021.13
2023-08-11T13:58:27.450Z,70020.38
2023-08-11T14:00:54.684Z,69993.06
2023-08-11T14:03:22.022Z,69990.75
2023-08-11T14:05:49.319Z,69971.94
2023-08-11T14:08:16.518Z,69978.81
2023-08-11T14:10:43.646Z,69987.97
2023-08-11T14:13:11.827Z,70027.69
2023-08-11T14:15:39.589Z,70004.59
2023-08-11T14:18:07.682Z,70033.56
2023-08-11T14:20:35.034Z,70039.88
2023-08-11T14:23:02.189Z,70052.06
2023-08-11T14:25:29.395Z,70045.59
2023-08-11T14:27:56.908Z,70023.41
2023-08-11T14:30:24.113Z,70006.88
2023-08-11T14:32:51.191Z,70018.25
2023-08-11T14:35:18.438Z,70015.25
2023-08-11T14:37:45.561Z,70004.00
2023-08-11T14:40:12.793Z,70007.44
2023-08-11T14:42:39.973Z,70050.75
2023-08-11T14:45:07.770Z,70068.38
2023-08-11T14:47:35.054Z,70054.44
2023-08-11T14:50:02.242Z,70069.28
2023-08-11T14:52:29.371Z,70064.53
2023-08-11T14:54:56.621Z,70065.66
2023-08-11T14:57:24.572Z,70050.44
2023-08-11T14:59:51.666Z,70085.75
2023-08-11T15:02:18.966Z,70063.94
2023-08-11T15:04:46.134Z,70029.22
2023-08-11T15:07:13.307Z,70054.19
2023-08-11T15:09:40.759Z,70040.84
2023-08-11T15:12:08.574Z,70030.28
2023-08-11T15:14:36.174Z,70045.03
2023-08-11T15:17:03.484Z,70046.31
2023-08-11T15:19:33.559Z,70051.47
2023-08-11T15:22:00.736Z,70028.09
2023-08-11T15:24:27.856Z,70050.91
2023-08-11T15:26:55.128Z,70055.59
2023-08-11T15:29:22.559Z,70095.63
2023-08-11T15:31:51.621Z,70075.66
2023-08-11T15:34:20.699Z,70097.34
2023-08-11T15:36:47.848Z,70072.22
2023-08-11T15:39:14.968Z,70109.50
2023-08-11T15:41:42.427Z,70085.56
2023-08-11T15:44:09.586Z,70089.75
2023-08-11T15:46:36.831Z,70074.28
2023-08-11T15:49:04.230Z,70072.69
2023-08-11T15:51:31.426Z,70067.81
2023-08-11T15:53:58.547Z,70059.53
2023-08-11T15:56:25.780Z,70058.38
2023-08-11T15:58:56.729Z,70068.13
2023-08-11T16:01:24.665Z,70048.06
2023-08-11T16:03:51.966Z,70032.00
2023-08-11T16:06:19.206Z,70055.50
2023-08-11T16:08:46.378Z,70048.06
2023-08-11T16:11:13.533Z,70066.97
2023-08-11T16:13:42.549Z,70047.59
2023-08-11T16:16:10.240Z,70062.97
2023-08-11T16:18:41.439Z,70051.59
2023-08-11T16:21:08.710Z,70066.97
2023-08-11T16:23:36.602Z,70059.53
2023-08-11T16:26:03.844Z,70054.19
2023-08-11T16:28:31.320Z,70061.66
2023-08-11T16:30:59.476Z,70069.69
2023-08-11T16:33:26.639Z,70073.53
2023-08-11T16:35:53.915Z,70037.25
2023-08-11T16:38:21.101Z,70055.34
2023-08-11T16:40:48.211Z,70036.59
2023-08-11T16:43:15.386Z,70012.78
2023-08-11T16:45:42.653Z,70011.94
2023-08-11T16:48:09.828Z,70011.78
2023-08-11T16:50:38.544Z,69998.19
2023-08-11T16:53:05.893Z,70004.34
2023-08-11T16:55:33.019Z,70007.19
2023-08-11T16:58:00.464Z,69988.88
2023-08-11T17:00:28.001Z,69967.66
2023-08-11T17:02:55.158Z,69954.50
2023-08-11T17:05:22.420Z,69948.91
2023-08-11T17:07:49.867Z,69939.03
2023-08-11T17:10:17.118Z,69925.13
2023-08-11T17:12:44.314Z,69915.56
2023-08-11T17:15:11.840Z,69914.25
2023-08-11T17:17:38.874Z,69902.94
2023-08-11T17:20:08.833Z,69905.63
2023-08-11T17:22:35.962Z,69892.78
2023-08-11T17:25:03.586Z,69904.91
2023-08-11T17:27:30.820Z,69885.03
2023-08-11T17:29:58.002Z,69863.56
2023-08-11T17:32:25.105Z,69850.81
2023-08-11T17:34:57.919Z,69842.97
2023-08-11T17:37:25.696Z,69834.97
2023-08-11T17:39:53.051Z,69830.66
2023-08-11T17:42:20.225Z,69830.22
2023-08-11T17:44:47.349Z,69823.53
2023-08-11T17:47:14.985Z,69808.59
2023-08-11T17:49:42.036Z,69795.28
2023-08-11T17:52:09.469Z,69777.56
2023-08-11T17:54:37.993Z,69741.81
2023-08-11T17:57:05.220Z,69754.84
2023-08-11T17:59:32.372Z,69762.69
2023-08-11T18:01:59.548Z,69748.94
2023-08-11T18:04:27.162Z,69746.09
2023-08-11T18:06:54.261Z,69725.88
2023-08-11T18:09:21.289Z,69687.47
2023-08-11T18:11:48.488Z,69701.31
2023-08-11T18:14:15.715Z,69696.72
2023-08-11T18:16:42.942Z,69695.00
2023-08-11T18:19:10.686Z,69682.44
2023-08-11T18:21:37.720Z,69635.47
2023-08-11T18:24:05.285Z,69644.25
2023-08-11T18:26:35.846Z,69647.94
2023-08-11T18:29:03.538Z,69633.38
2023-08-11T18:31:30.713Z,69631.94
2023-08-11T18:34:01.134Z,69619.66
2023-08-11T18:36:29.712Z,69622.94
2023-08-11T18:38:57.093Z,69608.22
2023-08-11T18:41:24.206Z,69610.69
2023-08-11T18:43:51.479Z,69606.53
2023-08-11T18:46:18.649Z,69603.09
2023-08-11T18:48:49.099Z,69614.94
2023-08-11T18:51:16.488Z,69614.38
2023-08-11T18:53:43.600Z,69604.81
2023-08-11T18:56:10.794Z,69601.94
2023-08-11T18:58:37.902Z,69577.72
2023-08-11T19:01:06.265Z,69605.06
2023-08-11T19:03:33.793Z,69613.22
2023-08-11T19:06:01.697Z,69593.72
2023-08-11T19:08:28.754Z,69620.81
2023-08-11T19:10:55.908Z,69615.84
2023-08-11T19:13:23.255Z,69612.81
2023-08-11T19:15:50.772Z,69617.38
2023-08-11T19:18:18.391Z,69611.25
2023-08-11T19:20:47.710Z,69610.69
2023-08-11T19:23:14.958Z,69602.69
2023-08-11T19:25:42.369Z,69609.38
2023-08-11T19:28:11.988Z,69613.22
2023-08-11T19:30:39.126Z,69589.38
2023-08-11T19:33:06.370Z,69579.09
2023-08-11T19:35:33.686Z,69591.50
2023-08-11T19:38:00.911Z,69557.19
2023-08-11T19:40:28.435Z,69538.50
2023-08-11T19:42:55.719Z,69546.75
2023-08-11T19:45:22.835Z,69540.22
2023-08-11T19:47:51.305Z,69539.63
2023-08-11T19:50:18.842Z,69536.22
2023-08-11T19:52:46.007Z,69529.38
2023-08-11T19:55:13.269Z,69498.88
2023-08-11T19:57:40.411Z,69512.97
2023-08-11T20:00:09.973Z,69507.06
2023-08-11T20:02:43.077Z,69507.25
2023-08-11T20:05:10.397Z,69504.78
2023-08-11T20:07:38.215Z,69500.22
2023-08-11T20:10:05.510Z,69497.38
2023-08-11T20:12:32.794Z,69475.66
2023-08-11T20:14:59.925Z,69478.94
2023-08-11T20:17:27.265Z,69477.22
2023-08-11T20:19:55.330Z,69469.94
2023-08-11T20:22:22.449Z,69460.06
2023-08-11T20:24:49.604Z,69457.19
2023-08-11T20:27:16.990Z,69463.31
2023-08-11T20:32:11.238Z,69445.53
2023-08-11T20:34:38.499Z,69452.81
2023-08-11T20:37:05.851Z,69451.66
2023-08-11T20:39:32.999Z,69459.66
2023-08-11T20:42:00.397Z,69463.50
2023-08-11T20:44:27.632Z,69461.94
2023-08-11T20:46:55.588Z,69460.81
2023-08-11T20:49:22.889Z,69432.03
2023-08-11T20:51:50.102Z,69453.38
2023-08-11T20:54:17.336Z,69442.50
2023-08-11T20:56:44.531Z,69445.38
2023-08-11T20:59:11.663Z,69420.59
2023-08-11T21:01:39.028Z,69427.69
2023-08-11T21:04:06.471Z,69427.50
2023-08-11T21:06:33.654Z,69414.53
2023-08-11T21:09:00.775Z,69417.97
2023-08-11T21:11:27.983Z,69394.94
2023-08-11T21:13:55.839Z,69427.09
2023-08-11T21:16:23.007Z,69429.97
2023-08-11T21:18:51.429Z,69414.53
2023-08-11T21:21:20.009Z,69412.84
2023-08-11T21:23:47.181Z,69398.72
2023-08-11T21:26:14.342Z,69401.59
2023-08-11T21:28:41.498Z,69391.69
2023-08-11T21:31:17.723Z,69385.84
2023-08-11T21:34:06.118Z,69368.69
2023-08-11T21:36:34.576Z,69378.81
2023-08-11T21:39:04.695Z,69356.88
2023-08-11T21:41:32.705Z,69343.16
2023-08-11T21:44:01.920Z,69346.78
2023-08-11T21:46:29.905Z,69362.41
2023-08-11T21:48:57.151Z,69351.56
2023-08-11T21:51:24.362Z,69337.47
2023-08-11T21:53:51.510Z,69324.00
2023-08-11T21:56:18.932Z,69306.09
2023-08-11T21:58:46.128Z,69323.59
2023-08-11T22:01:13.350Z,69313.50
2023-08-11T22:03:40.599Z,69310.66
2023-08-11T22:06:07.783Z,69293.53
2023-08-11T22:08:35.009Z,69287.28
2023-08-11T22:11:02.152Z,69287.66
2023-08-11T22:13:29.370Z,69286.69
2023-08-11T22:15:56.548Z,69269.59
2023-08-11T22:18:23.724Z,69269.94
2023-08-11T22:20:50.832Z,69267.66
2023-08-11T22:23:18.031Z,69241.38
2023-08-11T22:25:45.182Z,69226.78
2023-08-11T22:28:12.300Z,69217.66
2023-08-11T22:30:39.948Z,69224.34
2023-08-11T22:33:07.378Z,69209.84
2023-08-11T22:35:34.578Z,69212.53
2023-08-11T22:38:01.724Z,69215.78
2023-08-11T22:40:29.049Z,69214.06
2023-08-11T22:42:56.151Z,69203.00
2023-08-11T22:45:23.321Z,69196.00
2023-08-11T22:47:51.150Z,69203.22
2023-08-11T22:50:18.195Z,69203.06
2023-08-11T22:52:46.070Z,69189.38
2023-08-11T22:55:13.219Z,69185.00
2023-08-11T22:57:40.679Z,69183.28
2023-08-11T23:00:11.254Z,69191.06
2023-08-11T23:02:38.517Z,69178.16
2023-08-11T23:05:07.440Z,69165.78
2023-08-11T23:07:34.678Z,69165.03
2023-08-11T23:10:01.896Z,69166.34
2023-08-11T23:12:30.755Z,69157.78
2023-08-11T23:14:57.926Z,69145.81
2023-08-11T23:17:25.176Z,69145.25
2023-08-11T23:19:53.756Z,69144.28
2023-08-11T23:22:20.966Z,69140.28
2023-08-11T23:24:48.076Z,69141.31
2023-08-11T23:27:18.226Z,69129.84
2023-08-11T23:29:45.530Z,69125.28
2023-08-11T23:32:12.811Z,69113.50
2023-08-11T23:34:39.961Z,69121.13
2023-08-11T23:37:07.174Z,69118.47
2023-08-11T23:39:34.742Z,69112.00
2023-08-11T23:42:01.909Z,69108.59
2023-08-11T23:44:29.012Z,69100.78
2023-08-11T23:46:56.187Z,69116.00
2023-08-11T23:49:23.326Z,69108.78
2023-08-11T23:51:50.466Z,69100.78
2023-08-11T23:54:17.944Z,69109.56
2023-08-11T23:56:45.469Z,69098.91
2023-08-11T23:59:12.589Z,69096.41
